sensor_id;sensor_type;location;lat;lon;timestamp;P1;durP1;ratioP1;P2;durP2;ratioP2
65323;SDS011;51937;48.364;11.378;2022-09-16T00:00:56;2.58;;;2.10;;
65323;SDS011;51937;48.364;11.378;2022-09-16T00:03:21;4.30;;;1.65;;
65323;SDS011;51937;48.364;11.378;2022-09-16T00:05:47;2.15;;;1.83;;
65323;SDS011;51937;48.364;11.378;2022-09-16T00:08:15;1.77;;;1.35;;
65323;SDS011;51937;48.364;11.378;2022-09-16T00:10:41;3.42;;;2.25;;
65323;SDS011;51937;48.364;11.378;2022-09-16T00:13:07;2.63;;;2.20;;
65323;SDS011;51937;48.364;11.378;2022-09-16T00:15:34;1.92;;;1.73;;
65323;SDS011;51937;48.364;11.378;2022-09-16T00:17:59;2.58;;;1.90;;
65323;SDS011;51937;48.364;11.378;2022-09-16T00:20:25;2.75;;;2.20;;
65323;SDS011;51937;48.364;11.378;2022-09-16T00:22:50;3.03;;;2.08;;
65323;SDS011;51937;48.364;11.378;2022-09-16T00:25:16;3.95;;;2.55;;
65323;SDS011;51937;48.364;11.378;2022-09-16T00:27:41;1.90;;;1.55;;
65323;SDS011;51937;48.364;11.378;2022-09-16T00:30:07;2.92;;;1.70;;
65323;SDS011;51937;48.364;11.378;2022-09-16T00:32:33;2.47;;;1.95;;
65323;SDS011;51937;48.364;11.378;2022-09-16T00:34:58;10.43;;;2.45;;
65323;SDS011;51937;48.364;11.378;2022-09-16T00:37:24;2.55;;;1.98;;
65323;SDS011;51937;48.364;11.378;2022-09-16T00:39:49;1.55;;;1.27;;
65323;SDS011;51937;48.364;11.378;2022-09-16T00:42:15;3.78;;;2.10;;
65323;SDS011;51937;48.364;11.378;2022-09-16T00:44:58;4.32;;;2.45;;
65323;SDS011;51937;48.364;11.378;2022-09-16T00:48:01;5.97;;;3.03;;
65323;SDS011;51937;48.364;11.378;2022-09-16T00:53:02;2.20;;;1.73;;
65323;SDS011;51937;48.364;11.378;2022-09-16T00:55:31;3.70;;;2.75;;
65323;SDS011;51937;48.364;11.378;2022-09-16T00:58:02;4.93;;;2.63;;
65323;SDS011;51937;48.364;11.378;2022-09-16T01:00:45;4.88;;;2.60;;
65323;SDS011;51937;48.364;11.378;2022-09-16T01:03:10;4.03;;;2.17;;
65323;SDS011;51937;48.364;11.378;2022-09-16T01:05:36;3.92;;;3.30;;
65323;SDS011;51937;48.364;11.378;2022-09-16T01:08:02;2.67;;;2.15;;
65323;SDS011;51937;48.364;11.378;2022-09-16T01:10:28;3.92;;;2.47;;
65323;SDS011;51937;48.364;11.378;2022-09-16T01:13:00;2.20;;;1.75;;
65323;SDS011;51937;48.364;11.378;2022-09-16T01:21:02;3.25;;;2.10;;
65323;SDS011;51937;48.364;11.378;2022-09-16T01:29:00;3.08;;;1.88;;
65323;SDS011;51937;48.364;11.378;2022-09-16T01:39:59;4.72;;;2.22;;
65323;SDS011;51937;48.364;11.378;2022-09-16T01:42:43;2.63;;;2.28;;
65323;SDS011;51937;48.364;11.378;2022-09-16T01:53:38;2.35;;;1.80;;
65323;SDS011;51937;48.364;11.378;2022-09-16T01:56:23;2.45;;;1.88;;
65323;SDS011;51937;48.364;11.378;2022-09-16T01:58:58;2.42;;;1.90;;
65323;SDS011;51937;48.364;11.378;2022-09-16T02:04:21;3.47;;;1.60;;
65323;SDS011;51937;48.364;11.378;2022-09-16T02:06:51;3.67;;;2.10;;
65323;SDS011;51937;48.364;11.378;2022-09-16T02:09:21;3.15;;;1.67;;
65323;SDS011;51937;48.364;11.378;2022-09-16T02:11:51;3.03;;;2.53;;
65323;SDS011;51937;48.364;11.378;2022-09-16T02:14:23;5.13;;;2.75;;
65323;SDS011;51937;48.364;11.378;2022-09-16T02:19:46;8.05;;;3.67;;
65323;SDS011;51937;48.364;11.378;2022-09-16T02:22:18;3.95;;;2.70;;
65323;SDS011;51937;48.364;11.378;2022-09-16T02:24:53;4.18;;;2.83;;
65323;SDS011;51937;48.364;11.378;2022-09-16T02:27:19;4.20;;;2.92;;
65323;SDS011;51937;48.364;11.378;2022-09-16T02:29:52;4.75;;;3.42;;
65323;SDS011;51937;48.364;11.378;2022-09-16T02:32:21;4.95;;;3.28;;
65323;SDS011;51937;48.364;11.378;2022-09-16T02:34:49;4.10;;;3.55;;
65323;SDS011;51937;48.364;11.378;2022-09-16T02:37:21;5.82;;;3.60;;
65323;SDS011;51937;48.364;11.378;2022-09-16T02:39:53;3.95;;;3.08;;
65323;SDS011;51937;48.364;11.378;2022-09-16T02:42:21;3.25;;;2.40;;
65323;SDS011;51937;48.364;11.378;2022-09-16T02:44:47;5.13;;;3.35;;
65323;SDS011;51937;48.364;11.378;2022-09-16T02:47:16;6.50;;;3.92;;
65323;SDS011;51937;48.364;11.378;2022-09-16T02:50:00;5.40;;;3.03;;
65323;SDS011;51937;48.364;11.378;2022-09-16T02:52:45;6.35;;;3.33;;
65323;SDS011;51937;48.364;11.378;2022-09-16T02:57:57;3.88;;;3.05;;
65323;SDS011;51937;48.364;11.378;2022-09-16T03:00:22;4.50;;;3.30;;
65323;SDS011;51937;48.364;11.378;2022-09-16T03:02:49;4.72;;;3.53;;
65323;SDS011;51937;48.364;11.378;2022-09-16T03:05:17;5.35;;;3.58;;
65323;SDS011;51937;48.364;11.378;2022-09-16T03:07:42;4.75;;;3.28;;
65323;SDS011;51937;48.364;11.378;2022-09-16T03:10:08;3.30;;;2.80;;
65323;SDS011;51937;48.364;11.378;2022-09-16T03:17:54;7.18;;;3.40;;
65323;SDS011;51937;48.364;11.378;2022-09-16T03:20:52;6.35;;;3.50;;
65323;SDS011;51937;48.364;11.378;2022-09-16T03:31:26;7.97;;;3.90;;
65323;SDS011;51937;48.364;11.378;2022-09-16T03:34:03;5.80;;;3.95;;
65323;SDS011;51937;48.364;11.378;2022-09-16T03:36:40;4.80;;;3.88;;
65323;SDS011;51937;48.364;11.378;2022-09-16T03:39:10;3.58;;;2.90;;
65323;SDS011;51937;48.364;11.378;2022-09-16T03:41:36;5.07;;;3.85;;
65323;SDS011;51937;48.364;11.378;2022-09-16T03:44:02;5.15;;;3.92;;
65323;SDS011;51937;48.364;11.378;2022-09-16T03:46:27;6.03;;;3.55;;
65323;SDS011;51937;48.364;11.378;2022-09-16T03:48:54;3.90;;;2.97;;
65323;SDS011;51937;48.364;11.378;2022-09-16T03:51:20;6.15;;;3.67;;
65323;SDS011;51937;48.364;11.378;2022-09-16T03:53:46;6.05;;;3.50;;
65323;SDS011;51937;48.364;11.378;2022-09-16T03:56:11;5.75;;;3.22;;
65323;SDS011;51937;48.364;11.378;2022-09-16T03:58:36;6.57;;;3.15;;
65323;SDS011;51937;48.364;11.378;2022-09-16T04:01:01;6.70;;;3.55;;
65323;SDS011;51937;48.364;11.378;2022-09-16T04:03:28;4.95;;;3.00;;
65323;SDS011;51937;48.364;11.378;2022-09-16T04:05:53;5.20;;;2.88;;
65323;SDS011;51937;48.364;11.378;2022-09-16T04:08:20;5.40;;;3.42;;
65323;SDS011;51937;48.364;11.378;2022-09-16T04:10:55;5.82;;;2.97;;
65323;SDS011;51937;48.364;11.378;2022-09-16T04:13:22;4.97;;;3.08;;
65323;SDS011;51937;48.364;11.378;2022-09-16T04:15:48;4.40;;;2.55;;
65323;SDS011;51937;48.364;11.378;2022-09-16T04:18:13;3.65;;;2.83;;
65323;SDS011;51937;48.364;11.378;2022-09-16T04:20:39;3.55;;;2.92;;
65323;SDS011;51937;48.364;11.378;2022-09-16T04:23:04;4.10;;;2.50;;
65323;SDS011;51937;48.364;11.378;2022-09-16T04:25:29;3.83;;;2.85;;
65323;SDS011;51937;48.364;11.378;2022-09-16T04:27:55;3.75;;;2.75;;
65323;SDS011;51937;48.364;11.378;2022-09-16T04:30:21;4.28;;;2.42;;
65323;SDS011;51937;48.364;11.378;2022-09-16T04:32:46;9.82;;;3.22;;
65323;SDS011;51937;48.364;11.378;2022-09-16T04:35:12;5.00;;;3.53;;
65323;SDS011;51937;48.364;11.378;2022-09-16T04:37:37;3.60;;;3.00;;
65323;SDS011;51937;48.364;11.378;2022-09-16T04:40:02;4.38;;;2.83;;
65323;SDS011;51937;48.364;11.378;2022-09-16T04:42:28;4.57;;;2.65;;
65323;SDS011;51937;48.364;11.378;2022-09-16T04:44:53;4.88;;;3.00;;
65323;SDS011;51937;48.364;11.378;2022-09-16T04:47:19;3.60;;;2.38;;
65323;SDS011;51937;48.364;11.378;2022-09-16T04:49:44;4.22;;;3.00;;
65323;SDS011;51937;48.364;11.378;2022-09-16T04:52:09;5.22;;;3.20;;
65323;SDS011;51937;48.364;11.378;2022-09-16T04:54:35;5.32;;;2.97;;
65323;SDS011;51937;48.364;11.378;2022-09-16T04:57:00;3.88;;;3.10;;
65323;SDS011;51937;48.364;11.378;2022-09-16T04:59:25;4.07;;;3.00;;
65323;SDS011;51937;48.364;11.378;2022-09-16T05:01:51;3.75;;;2.80;;
65323;SDS011;51937;48.364;11.378;2022-09-16T05:04:16;6.57;;;3.13;;
65323;SDS011;51937;48.364;11.378;2022-09-16T05:06:42;6.10;;;3.58;;
65323;SDS011;51937;48.364;11.378;2022-09-16T05:09:09;5.05;;;3.35;;
65323;SDS011;51937;48.364;11.378;2022-09-16T05:11:36;7.65;;;3.13;;
65323;SDS011;51937;48.364;11.378;2022-09-16T05:14:03;4.18;;;2.30;;
65323;SDS011;51937;48.364;11.378;2022-09-16T05:16:31;4.20;;;3.05;;
65323;SDS011;51937;48.364;11.378;2022-09-16T05:18:59;3.88;;;2.88;;
65323;SDS011;51937;48.364;11.378;2022-09-16T05:21:28;4.82;;;2.97;;
65323;SDS011;51937;48.364;11.378;2022-09-16T05:23:54;6.88;;;3.20;;
65323;SDS011;51937;48.364;11.378;2022-09-16T05:26:24;3.83;;;3.00;;
65323;SDS011;51937;48.364;11.378;2022-09-16T05:28:51;6.13;;;2.88;;
65323;SDS011;51937;48.364;11.378;2022-09-16T05:31:27;2.75;;;2.45;;
65323;SDS011;51937;48.364;11.378;2022-09-16T05:33:58;11.50;;;3.50;;
65323;SDS011;51937;48.364;11.378;2022-09-16T05:36:28;4.22;;;3.20;;
65323;SDS011;51937;48.364;11.378;2022-09-16T05:38:55;3.97;;;2.72;;
65323;SDS011;51937;48.364;11.378;2022-09-16T05:41:21;6.80;;;3.50;;
65323;SDS011;51937;48.364;11.378;2022-09-16T05:43:47;5.38;;;3.22;;
65323;SDS011;51937;48.364;11.378;2022-09-16T05:46:17;5.72;;;3.20;;
65323;SDS011;51937;48.364;11.378;2022-09-16T05:48:44;9.48;;;3.55;;
65323;SDS011;51937;48.364;11.378;2022-09-16T05:51:10;3.55;;;2.78;;
65323;SDS011;51937;48.364;11.378;2022-09-16T05:53:38;4.43;;;2.85;;
65323;SDS011;51937;48.364;11.378;2022-09-16T05:58:30;4.63;;;2.83;;
65323;SDS011;51937;48.364;11.378;2022-09-16T06:01:03;9.88;;;3.05;;
65323;SDS011;51937;48.364;11.378;2022-09-16T06:03:31;3.43;;;2.87;;
65323;SDS011;51937;48.364;11.378;2022-09-16T06:06:05;4.95;;;3.33;;
65323;SDS011;51937;48.364;11.378;2022-09-16T06:08:35;3.95;;;3.08;;
65323;SDS011;51937;48.364;11.378;2022-09-16T06:11:05;5.25;;;3.38;;
65323;SDS011;51937;48.364;11.378;2022-09-16T06:13:32;5.55;;;3.80;;
65323;SDS011;51937;48.364;11.378;2022-09-16T06:15:58;5.55;;;3.10;;
65323;SDS011;51937;48.364;11.378;2022-09-16T06:18:24;5.82;;;3.45;;
65323;SDS011;51937;48.364;11.378;2022-09-16T06:20:51;4.50;;;3.00;;
65323;SDS011;51937;48.364;11.378;2022-09-16T06:23:17;4.10;;;3.35;;
65323;SDS011;51937;48.364;11.378;2022-09-16T06:25:43;7.22;;;3.80;;
65323;SDS011;51937;48.364;11.378;2022-09-16T06:28:09;5.05;;;3.58;;
65323;SDS011;51937;48.364;11.378;2022-09-16T06:30:35;4.00;;;2.65;;
65323;SDS011;51937;48.364;11.378;2022-09-16T06:33:01;7.13;;;3.38;;
65323;SDS011;51937;48.364;11.378;2022-09-16T06:35:27;6.93;;;3.40;;
65323;SDS011;51937;48.364;11.378;2022-09-16T06:37:53;4.75;;;2.90;;
65323;SDS011;51937;48.364;11.378;2022-09-16T06:40:18;5.80;;;3.95;;
65323;SDS011;51937;48.364;11.378;2022-09-16T06:42:43;7.18;;;4.28;;
65323;SDS011;51937;48.364;11.378;2022-09-16T06:45:09;8.18;;;3.90;;
65323;SDS011;51937;48.364;11.378;2022-09-16T06:47:34;5.32;;;3.78;;
65323;SDS011;51937;48.364;11.378;2022-09-16T06:50:00;7.75;;;3.65;;
65323;SDS011;51937;48.364;11.378;2022-09-16T06:52:25;4.65;;;3.47;;
65323;SDS011;51937;48.364;11.378;2022-09-16T06:54:51;7.15;;;3.70;;
65323;SDS011;51937;48.364;11.378;2022-09-16T06:57:17;4.95;;;3.65;;
65323;SDS011;51937;48.364;11.378;2022-09-16T06:59:44;4.60;;;3.70;;
65323;SDS011;51937;48.364;11.378;2022-09-16T07:02:10;6.20;;;4.10;;
65323;SDS011;51937;48.364;11.378;2022-09-16T07:04:35;4.57;;;3.13;;
65323;SDS011;51937;48.364;11.378;2022-09-16T07:07:01;5.93;;;4.07;;
65323;SDS011;51937;48.364;11.378;2022-09-16T07:09:27;8.68;;;4.57;;
65323;SDS011;51937;48.364;11.378;2022-09-16T07:11:52;5.03;;;3.53;;
65323;SDS011;51937;48.364;11.378;2022-09-16T07:14:18;7.60;;;3.40;;
65323;SDS011;51937;48.364;11.378;2022-09-16T07:16:43;5.55;;;3.60;;
65323;SDS011;51937;48.364;11.378;2022-09-16T07:19:09;5.55;;;3.53;;
65323;SDS011;51937;48.364;11.378;2022-09-16T07:21:34;4.20;;;3.22;;
65323;SDS011;51937;48.364;11.378;2022-09-16T07:24:00;4.07;;;3.15;;
65323;SDS011;51937;48.364;11.378;2022-09-16T07:26:30;6.55;;;4.13;;
65323;SDS011;51937;48.364;11.378;2022-09-16T07:28:58;6.85;;;4.13;;
65323;SDS011;51937;48.364;11.378;2022-09-16T07:31:27;8.85;;;3.25;;
65323;SDS011;51937;48.364;11.378;2022-09-16T07:33:55;8.30;;;4.10;;
65323;SDS011;51937;48.364;11.378;2022-09-16T07:36:23;8.73;;;3.85;;
65323;SDS011;51937;48.364;11.378;2022-09-16T07:38:51;5.57;;;3.95;;
65323;SDS011;51937;48.364;11.378;2022-09-16T07:41:17;5.25;;;3.20;;
65323;SDS011;51937;48.364;11.378;2022-09-16T07:43:44;10.68;;;3.83;;
65323;SDS011;51937;48.364;11.378;2022-09-16T07:46:11;5.32;;;3.90;;
65323;SDS011;51937;48.364;11.378;2022-09-16T07:48:37;7.78;;;3.67;;
65323;SDS011;51937;48.364;11.378;2022-09-16T07:51:07;11.35;;;3.00;;
65323;SDS011;51937;48.364;11.378;2022-09-16T07:53:35;5.03;;;3.67;;
65323;SDS011;51937;48.364;11.378;2022-09-16T07:56:06;7.25;;;4.40;;
65323;SDS011;51937;48.364;11.378;2022-09-16T07:58:33;6.25;;;3.55;;
65323;SDS011;51937;48.364;11.378;2022-09-16T08:00:59;8.15;;;4.43;;
65323;SDS011;51937;48.364;11.378;2022-09-16T08:03:24;6.03;;;3.95;;
65323;SDS011;51937;48.364;11.378;2022-09-16T08:05:49;8.50;;;4.07;;
65323;SDS011;51937;48.364;11.378;2022-09-16T08:08:15;7.72;;;4.43;;
65323;SDS011;51937;48.364;11.378;2022-09-16T08:10:40;8.20;;;4.20;;
65323;SDS011;51937;48.364;11.378;2022-09-16T08:13:06;7.28;;;5.00;;
65323;SDS011;51937;48.364;11.378;2022-09-16T08:15:32;7.40;;;4.90;;
65323;SDS011;51937;48.364;11.378;2022-09-16T08:17:58;6.15;;;4.40;;
65323;SDS011;51937;48.364;11.378;2022-09-16T08:20:23;7.72;;;4.70;;
65323;SDS011;51937;48.364;11.378;2022-09-16T08:22:50;5.63;;;4.28;;
65323;SDS011;51937;48.364;11.378;2022-09-16T08:25:15;5.05;;;3.83;;
65323;SDS011;51937;48.364;11.378;2022-09-16T08:27:41;6.70;;;4.32;;
65323;SDS011;51937;48.364;11.378;2022-09-16T08:30:06;7.03;;;4.50;;
65323;SDS011;51937;48.364;11.378;2022-09-16T08:32:33;6.45;;;4.45;;
65323;SDS011;51937;48.364;11.378;2022-09-16T08:34:59;8.07;;;4.80;;
65323;SDS011;51937;48.364;11.378;2022-09-16T08:37:24;5.47;;;3.33;;
65323;SDS011;51937;48.364;11.378;2022-09-16T08:39:50;4.68;;;3.67;;
65323;SDS011;51937;48.364;11.378;2022-09-16T08:50:25;7.30;;;4.25;;
65323;SDS011;51937;48.364;11.378;2022-09-16T08:53:01;7.68;;;3.85;;
65323;SDS011;51937;48.364;11.378;2022-09-16T08:55:33;6.97;;;4.72;;
65323;SDS011;51937;48.364;11.378;2022-09-16T08:58:37;8.07;;;3.88;;
65323;SDS011;51937;48.364;11.378;2022-09-16T09:01:01;5.30;;;3.90;;
65323;SDS011;51937;48.364;11.378;2022-09-16T09:03:39;4.25;;;3.17;;
65323;SDS011;51937;48.364;11.378;2022-09-16T09:06:25;5.18;;;3.28;;
65323;SDS011;51937;48.364;11.378;2022-09-16T09:12:06;4.72;;;2.83;;
65323;SDS011;51937;48.364;11.378;2022-09-16T09:20:43;5.10;;;3.17;;
65323;SDS011;51937;48.364;11.378;2022-09-16T09:25:56;4.10;;;3.03;;
65323;SDS011;51937;48.364;11.378;2022-09-16T09:43:17;4.55;;;3.05;;
65323;SDS011;51937;48.364;11.378;2022-09-16T09:51:12;2.75;;;1.70;;
65323;SDS011;51937;48.364;11.378;2022-09-16T09:53:44;4.25;;;1.83;;
65323;SDS011;51937;48.364;11.378;2022-09-16T09:59:10;3.63;;;1.98;;
65323;SDS011;51937;48.364;11.378;2022-09-16T10:01:39;4.70;;;1.83;;
65323;SDS011;51937;48.364;11.378;2022-09-16T10:04:10;4.03;;;2.15;;
65323;SDS011;51937;48.364;11.378;2022-09-16T10:06:38;3.95;;;2.10;;
65323;SDS011;51937;48.364;11.378;2022-09-16T10:09:04;2.88;;;1.83;;
65323;SDS011;51937;48.364;11.378;2022-09-16T10:11:30;2.70;;;2.25;;
65323;SDS011;51937;48.364;11.378;2022-09-16T10:13:57;5.43;;;2.20;;
65323;SDS011;51937;48.364;11.378;2022-09-16T10:16:28;4.55;;;2.22;;
65323;SDS011;51937;48.364;11.378;2022-09-16T10:21:47;7.20;;;1.80;;
65323;SDS011;51937;48.364;11.378;2022-09-16T10:24:26;6.38;;;1.27;;
65323;SDS011;51937;48.364;11.378;2022-09-16T10:26:54;1.95;;;1.35;;
65323;SDS011;51937;48.364;11.378;2022-09-16T10:29:21;2.95;;;1.27;;
65323;SDS011;51937;48.364;11.378;2022-09-16T10:31:46;1.30;;;1.15;;
65323;SDS011;51937;48.364;11.378;2022-09-16T10:34:29;3.78;;;1.35;;
65323;SDS011;51937;48.364;11.378;2022-09-16T10:36:58;2.85;;;1.40;;
65323;SDS011;51937;48.364;11.378;2022-09-16T10:39:25;3.40;;;1.60;;
65323;SDS011;51937;48.364;11.378;2022-09-16T10:41:52;3.80;;;1.70;;
65323;SDS011;51937;48.364;11.378;2022-09-16T10:44:22;2.25;;;1.60;;
65323;SDS011;51937;48.364;11.378;2022-09-16T10:46:54;2.28;;;1.45;;
65323;SDS011;51937;48.364;11.378;2022-09-16T10:49:38;2.70;;;1.42;;
65323;SDS011;51937;48.364;11.378;2022-09-16T10:54:41;1.90;;;1.52;;
65323;SDS011;51937;48.364;11.378;2022-09-16T11:05:55;3.17;;;1.35;;
65323;SDS011;51937;48.364;11.378;2022-09-16T11:25:31;2.05;;;1.33;;
65323;SDS011;51937;48.364;11.378;2022-09-16T11:33:54;1.85;;;1.50;;
65323;SDS011;51937;48.364;11.378;2022-09-16T11:50:40;2.05;;;1.65;;
65323;SDS011;51937;48.364;11.378;2022-09-16T11:55:54;1.90;;;1.15;;
65323;SDS011;51937;48.364;11.378;2022-09-16T12:01:14;1.70;;;1.20;;
65323;SDS011;51937;48.364;11.378;2022-09-16T12:04:03;4.75;;;1.27;;
65323;SDS011;51937;48.364;11.378;2022-09-16T12:06:39;1.88;;;1.42;;
65323;SDS011;51937;48.364;11.378;2022-09-16T12:09:16;2.83;;;1.38;;
65323;SDS011;51937;48.364;11.378;2022-09-16T12:11:49;1.85;;;1.00;;
65323;SDS011;51937;48.364;11.378;2022-09-16T12:14:22;4.40;;;1.42;;
65323;SDS011;51937;48.364;11.378;2022-09-16T12:19:42;2.95;;;1.40;;
65323;SDS011;51937;48.364;11.378;2022-09-16T12:22:17;1.52;;;1.35;;
65323;SDS011;51937;48.364;11.378;2022-09-16T12:25:02;2.28;;;1.42;;
65323;SDS011;51937;48.364;11.378;2022-09-16T12:27:38;1.73;;;1.20;;
65323;SDS011;51937;48.364;11.378;2022-09-16T12:33:28;2.05;;;0.90;;
65323;SDS011;51937;48.364;11.378;2022-09-16T12:36:01;1.40;;;1.00;;
65323;SDS011;51937;48.364;11.378;2022-09-16T12:38:32;1.90;;;1.00;;
65323;SDS011;51937;48.364;11.378;2022-09-16T12:52:19;0.82;;;0.82;;
65323;SDS011;51937;48.364;11.378;2022-09-16T12:58:11;1.83;;;0.77;;
65323;SDS011;51937;48.364;11.378;2022-09-16T13:03:40;2.38;;;1.27;;
65323;SDS011;51937;48.364;11.378;2022-09-16T13:06:20;1.30;;;1.20;;
65323;SDS011;51937;48.364;11.378;2022-09-16T13:08:48;1.05;;;0.90;;
65323;SDS011;51937;48.364;11.378;2022-09-16T13:11:24;2.25;;;1.20;;
65323;SDS011;51937;48.364;11.378;2022-09-16T13:13:53;2.08;;;1.10;;
65323;SDS011;51937;48.364;11.378;2022-09-16T13:16:33;2.60;;;1.02;;
65323;SDS011;51937;48.364;11.378;2022-09-16T13:21:47;1.20;;;1.10;;
65323;SDS011;51937;48.364;11.378;2022-09-16T13:27:01;1.65;;;1.25;;
65323;SDS011;51937;48.364;11.378;2022-09-16T13:37:42;1.98;;;1.33;;
65323;SDS011;51937;48.364;11.378;2022-09-16T13:40:14;1.70;;;1.00;;
65323;SDS011;51937;48.364;11.378;2022-09-16T13:42:48;2.00;;;1.20;;
65323;SDS011;51937;48.364;11.378;2022-09-16T13:45:33;5.18;;;1.35;;
65323;SDS011;51937;48.364;11.378;2022-09-16T13:48:11;2.17;;;1.50;;
65323;SDS011;51937;48.364;11.378;2022-09-16T13:50:48;5.72;;;1.70;;
65323;SDS011;51937;48.364;11.378;2022-09-16T13:53:22;1.30;;;1.20;;
65323;SDS011;51937;48.364;11.378;2022-09-16T13:55:53;3.78;;;2.00;;
65323;SDS011;51937;48.364;11.378;2022-09-16T13:58:30;2.25;;;1.52;;
65323;SDS011;51937;48.364;11.378;2022-09-16T14:01:29;2.47;;;1.40;;
65323;SDS011;51937;48.364;11.378;2022-09-16T14:15:36;2.22;;;1.27;;
65323;SDS011;51937;48.364;11.378;2022-09-16T14:18:06;1.50;;;1.20;;
65323;SDS011;51937;48.364;11.378;2022-09-16T14:20:34;3.65;;;1.40;;
65323;SDS011;51937;48.364;11.378;2022-09-16T14:23:04;2.63;;;1.60;;
65323;SDS011;51937;48.364;11.378;2022-09-16T14:25:43;3.13;;;1.27;;
65323;SDS011;51937;48.364;11.378;2022-09-16T14:28:14;2.17;;;1.48;;
65323;SDS011;51937;48.364;11.378;2022-09-16T14:30:55;3.78;;;1.50;;
65323;SDS011;51937;48.364;11.378;2022-09-16T14:33:29;1.73;;;1.50;;
65323;SDS011;51937;48.364;11.378;2022-09-16T14:36:17;2.55;;;1.45;;
65323;SDS011;51937;48.364;11.378;2022-09-16T14:38:53;2.88;;;1.65;;
65323;SDS011;51937;48.364;11.378;2022-09-16T14:41:23;1.90;;;1.33;;
65323;SDS011;51937;48.364;11.378;2022-09-16T14:43:53;1.48;;;1.25;;
65323;SDS011;51937;48.364;11.378;2022-09-16T14:46:24;3.03;;;1.23;;
65323;SDS011;51937;48.364;11.378;2022-09-16T14:48:50;4.80;;;1.25;;
65323;SDS011;51937;48.364;11.378;2022-09-16T14:51:20;4.95;;;1.55;;
65323;SDS011;51937;48.364;11.378;2022-09-16T14:54:14;1.85;;;1.63;;
65323;SDS011;51937;48.364;11.378;2022-09-16T14:56:40;1.80;;;1.33;;
65323;SDS011;51937;48.364;11.378;2022-09-16T14:59:08;1.40;;;1.25;;
65323;SDS011;51937;48.364;11.378;2022-09-16T15:01:35;4.30;;;1.55;;
65323;SDS011;51937;48.364;11.378;2022-09-16T15:04:02;2.10;;;1.38;;
65323;SDS011;51937;48.364;11.378;2022-09-16T15:06:40;1.88;;;1.20;;
65323;SDS011;51937;48.364;11.378;2022-09-16T15:11:46;2.35;;;1.50;;
65323;SDS011;51937;48.364;11.378;2022-09-16T15:14:15;2.63;;;1.33;;
65323;SDS011;51937;48.364;11.378;2022-09-16T15:16:48;2.72;;;1.45;;
65323;SDS011;51937;48.364;11.378;2022-09-16T15:19:24;1.70;;;1.35;;
65323;SDS011;51937;48.364;11.378;2022-09-16T15:21:53;4.25;;;1.58;;
65323;SDS011;51937;48.364;11.378;2022-09-16T15:24:21;2.22;;;1.88;;
65323;SDS011;51937;48.364;11.378;2022-09-16T15:26:50;2.30;;;1.42;;
65323;SDS011;51937;48.364;11.378;2022-09-16T15:31:43;3.55;;;1.73;;
65323;SDS011;51937;48.364;11.378;2022-09-16T15:36:54;3.92;;;1.67;;
65323;SDS011;51937;48.364;11.378;2022-09-16T15:39:30;6.95;;;2.20;;
65323;SDS011;51937;48.364;11.378;2022-09-16T15:42:10;2.38;;;1.52;;
65323;SDS011;51937;48.364;11.378;2022-09-16T15:44:48;2.92;;;1.65;;
65323;SDS011;51937;48.364;11.378;2022-09-16T15:50:13;2.17;;;1.48;;
65323;SDS011;51937;48.364;11.378;2022-09-16T15:52:52;1.98;;;1.73;;
65323;SDS011;51937;48.364;11.378;2022-09-16T15:56:08;2.83;;;1.45;;
65323;SDS011;51937;48.364;11.378;2022-09-16T15:58:35;3.25;;;1.70;;
65323;SDS011;51937;48.364;11.378;2022-09-16T16:03:47;2.28;;;1.40;;
65323;SDS011;51937;48.364;11.378;2022-09-16T16:06:21;3.10;;;1.63;;
65323;SDS011;51937;48.364;11.378;2022-09-16T16:09:22;2.60;;;1.50;;
65323;SDS011;51937;48.364;11.378;2022-09-16T16:11:52;1.73;;;1.50;;
65323;SDS011;51937;48.364;11.378;2022-09-16T16:14:17;2.10;;;1.45;;
65323;SDS011;51937;48.364;11.378;2022-09-16T16:16:43;1.95;;;1.20;;
65323;SDS011;51937;48.364;11.378;2022-09-16T16:19:08;3.05;;;1.55;;
65323;SDS011;51937;48.364;11.378;2022-09-16T16:21:37;1.70;;;1.40;;
65323;SDS011;51937;48.364;11.378;2022-09-16T16:24:03;3.60;;;1.90;;
65323;SDS011;51937;48.364;11.378;2022-09-16T16:26:28;2.53;;;1.40;;
65323;SDS011;51937;48.364;11.378;2022-09-16T16:28:53;3.25;;;1.50;;
65323;SDS011;51937;48.364;11.378;2022-09-16T16:31:18;2.08;;;1.35;;
65323;SDS011;51937;48.364;11.378;2022-09-16T16:33:44;3.90;;;1.67;;
65323;SDS011;51937;48.364;11.378;2022-09-16T16:36:12;3.95;;;1.70;;
65323;SDS011;51937;48.364;11.378;2022-09-16T16:38:38;4.53;;;1.92;;
65323;SDS011;51937;48.364;11.378;2022-09-16T16:41:04;1.48;;;1.38;;
65323;SDS011;51937;48.364;11.378;2022-09-16T16:43:30;2.20;;;1.58;;
65323;SDS011;51937;48.364;11.378;2022-09-16T16:45:56;1.58;;;1.48;;
65323;SDS011;51937;48.364;11.378;2022-09-16T16:48:22;4.10;;;1.85;;
65323;SDS011;51937;48.364;11.378;2022-09-16T16:51:01;3.28;;;2.08;;
65323;SDS011;51937;48.364;11.378;2022-09-16T16:53:32;3.10;;;1.75;;
65323;SDS011;51937;48.364;11.378;2022-09-16T16:56:02;2.17;;;1.73;;
65323;SDS011;51937;48.364;11.378;2022-09-16T16:58:30;2.78;;;1.65;;
65323;SDS011;51937;48.364;11.378;2022-09-16T17:01:05;6.15;;;2.00;;
65323;SDS011;51937;48.364;11.378;2022-09-16T17:03:33;2.20;;;1.63;;
65323;SDS011;51937;48.364;11.378;2022-09-16T17:05:59;2.15;;;1.70;;
65323;SDS011;51937;48.364;11.378;2022-09-16T17:08:25;4.63;;;2.33;;
65323;SDS011;51937;48.364;11.378;2022-09-16T17:11:03;4.35;;;1.90;;
65323;SDS011;51937;48.364;11.378;2022-09-16T17:13:48;3.70;;;1.90;;
65323;SDS011;51937;48.364;11.378;2022-09-16T17:16:16;3.22;;;2.25;;
65323;SDS011;51937;48.364;11.378;2022-09-16T17:18:44;6.57;;;1.90;;
65323;SDS011;51937;48.364;11.378;2022-09-16T17:21:11;1.88;;;1.52;;
65323;SDS011;51937;48.364;11.378;2022-09-16T17:23:40;1.55;;;1.45;;
65323;SDS011;51937;48.364;11.378;2022-09-16T17:26:07;2.55;;;1.85;;
65323;SDS011;51937;48.364;11.378;2022-09-16T17:28:33;3.45;;;1.63;;
65323;SDS011;51937;48.364;11.378;2022-09-16T17:30:59;2.90;;;2.03;;
65323;SDS011;51937;48.364;11.378;2022-09-16T17:33:25;3.75;;;1.70;;
65323;SDS011;51937;48.364;11.378;2022-09-16T17:36:01;3.70;;;2.40;;
65323;SDS011;51937;48.364;11.378;2022-09-16T17:38:31;5.40;;;2.30;;
65323;SDS011;51937;48.364;11.378;2022-09-16T17:41:04;3.38;;;1.92;;
65323;SDS011;51937;48.364;11.378;2022-09-16T17:43:31;3.50;;;2.30;;
65323;SDS011;51937;48.364;11.378;2022-09-16T17:45:58;3.30;;;2.13;;
65323;SDS011;51937;48.364;11.378;2022-09-16T17:48:24;2.28;;;1.85;;
65323;SDS011;51937;48.364;11.378;2022-09-16T17:50:50;12.50;;;2.22;;
65323;SDS011;51937;48.364;11.378;2022-09-16T17:53:16;4.28;;;2.40;;
65323;SDS011;51937;48.364;11.378;2022-09-16T17:55:41;4.18;;;2.00;;
65323;SDS011;51937;48.364;11.378;2022-09-16T17:58:07;3.63;;;2.22;;
65323;SDS011;51937;48.364;11.378;2022-09-16T18:00:32;3.33;;;2.45;;
65323;SDS011;51937;48.364;11.378;2022-09-16T18:02:57;4.68;;;2.00;;
65323;SDS011;51937;48.364;11.378;2022-09-16T18:05:23;3.33;;;2.17;;
65323;SDS011;51937;48.364;11.378;2022-09-16T18:07:48;1.95;;;1.67;;
65323;SDS011;51937;48.364;11.378;2022-09-16T18:10:13;2.15;;;1.85;;
65323;SDS011;51937;48.364;11.378;2022-09-16T18:12:39;2.80;;;2.15;;
65323;SDS011;51937;48.364;11.378;2022-09-16T18:15:04;2.97;;;2.22;;
65323;SDS011;51937;48.364;11.378;2022-09-16T18:17:30;4.07;;;2.00;;
65323;SDS011;51937;48.364;11.378;2022-09-16T18:19:55;4.53;;;2.50;;
65323;SDS011;51937;48.364;11.378;2022-09-16T18:22:21;2.50;;;1.85;;
65323;SDS011;51937;48.364;11.378;2022-09-16T18:24:46;2.65;;;2.13;;